KPTWKLNS

Guest
Details From KPTW - Heritage Field
To KLNS - Lancaster
Flight Number -
Tags generated
Created
Modified
Stats Distance 35 nm / 64 km
Max Altitude 0 ft / 0 m
Waypoints 3
Social Downloads 0
Likes 0
Share VATSIM

Download

Looking for another format? Having issues loading an existing format? Contact us
Advertisement - Login to hide

Notes

Basic altitude profile: - Ascent Rate: 2500ft/min - Ascent Speed: 250kts - Cruise Altitude: 35000ft - Cruise Speed: 420kts - Descent Rate: 1500ft/min - Descent Speed: 250kts Options: - Use NATs: yes - Use PACOTS: yes - Use low airways: yes - Use high airways: yes

Route

KPTW LRP KLNS

ID Type Via Altitude Latitude Longitude Leg Dist Tot Dist Heading (true) Name
O KPTW APT - 0 ft / 0 m 40.23954˚ -75.55676˚ - 0 nm - Heritage Field
LRP VOR - 0 ft / 0 m 40.11997˚ -76.29131˚ 34 nm 34 nm 258° / 258° LANCASTER VORTAC
O KLNS APT - 0 ft / 0 m 40.12195˚ -76.29498˚ 0 nm 34 nm 305° / 305° Lancaster

Altitude Profile

Advertisement - Login to hide

KPTW

Details ICAO KPTW
Name Heritage Field
Region United States
Timezone America/New_York (UTC-5.0)
Stats Elevation 309 ft / 94 m (AMSL)
Location 40.239544° -75.556757°
Runways 1
Magnetic Variation 11.970° W

METAR

KPTW 171554Z AUTO 05003KT 7SM CLR 01/M04 A3029 RMK AO2 SLP259 T00111044

Decode

TAF

Not found

Departure Runways

ID Width Length Bearing (true) Bearing (mag) Surface Threshold Offset Overrun Length
10 75 ft / 23 m 3,374 ft / 1,028 m 84.10° 96.07° Asphalt 0 ft / 0 m 0 ft / 0 m
28 75 ft / 23 m 3,374 ft / 1,028 m 264.11° 276.08° Asphalt 190 ft / 58 m 0 ft / 0 m

KLNS

Details ICAO KLNS (LNS)
Name Lancaster
Region United States
Timezone America/New_York (UTC-5.0)
Stats Elevation 403 ft / 123 m (AMSL)
Location 40.121953° -76.294980°
Runways 2
Magnetic Variation 11.529° W

METAR

KLNS 171553Z 09003KT 6SM HZ CLR 02/M01 A3027 RMK AO2 SLP254 T00171011

Decode

TAF

TAF AMD KLNS 171538Z 1716/1812 00000KT 5SM BR SCT100 OVC200 FM171800 VRB03KT P6SM BKN100 FM180300 00000KT 4SM BR OVC015

Decode

Destination Runways

ID Width Length Bearing (true) Bearing (mag) Surface Threshold Offset Overrun Length
08 150 ft / 46 m 6,922 ft / 2,110 m 67.89° 79.42° Asphalt 200 ft / 61 m 0 ft / 0 m
13 100 ft / 30 m 4,096 ft / 1,248 m 119.30° 130.83° Asphalt 0 ft / 0 m 0 ft / 0 m
26 150 ft / 46 m 6,922 ft / 2,110 m 247.91° 259.44° Asphalt 459 ft / 140 m 0 ft / 0 m
31 100 ft / 30 m 4,096 ft / 1,248 m 299.31° 310.84° Asphalt 0 ft / 0 m 0 ft / 0 m

Approach Navaids

Runway Type Ident Frequency Range Bearing (true) Bearing (mag) Slope Elevation
08 Localiser ILNS 108.70 MHz 18 nm / 33 km 67.91° 79.44° - 403 ft / 123 m (AMSL)
08 Glidescope ILNS 108.70 MHz 10 nm / 19 km 67.90° 79.43° 3.00° 399 ft / 122 m (AMSL)